Time;durP1;ratioP1;P1;durP2;ratioP2;P2;SDS_P1;SDS_P2;PMS_P1;PMS_P2;Temp;Humidity;BMP_temperature;BMP_pressure;BME280_temperature;BME280_humidity;BME280_pressure;Samples;Min_cycle;Max_cycle;Signal;HPM_P1;HPM_P2
2021/03/26 00:01:24;;;;;;;;;;;23.80;41.10;;;;;;5072161;28;19921;-40
2021/03/26 00:03:52;;;;;;;;;;;23.80;40.50;;;;;;5073260;28;20348;-41
2021/03/26 00:06:20;;;;;;;;;;;23.80;40.50;;;;;;5074992;28;20004;-40
2021/03/26 00:08:47;;;;;;;;;;;23.80;40.50;;;;;;5073267;28;19920;-40
2021/03/26 00:11:14;;;;;;;;;;;23.80;40.50;;;;;;5073241;28;19921;-40
2021/03/26 00:13:41;;;;;;;;;;;23.80;40.50;;;;;;5072656;28;19924;-40
2021/03/26 00:16:10;;;;;;;;;;;23.80;40.50;;;;;;5073011;28;19924;-41
2021/03/26 00:18:40;;;;;;;;;;;23.80;40.50;;;;;;5072170;28;20406;-41
2021/03/26 00:21:07;;;;;;;;;;;23.80;40.50;;;;;;5071775;28;19962;-40
2021/03/26 00:23:34;;;;;;;;;;;23.80;40.50;;;;;;5071686;28;19928;-42
2021/03/26 00:26:01;;;;;;;;;;;23.80;40.50;;;;;;5072668;28;19921;-40
2021/03/26 00:28:27;;;;;;;;;;;23.80;40.50;;;;;;5071394;28;19927;-43
2021/03/26 00:30:54;;;;;;;;;;;23.80;40.50;;;;;;5070271;28;19946;-41
2021/03/26 00:33:20;;;;;;;;;;;23.70;40.70;;;;;;5071567;28;19920;-41
2021/03/26 00:35:47;;;;;;;;;;;23.80;40.50;;;;;;5071356;28;19951;-40
2021/03/26 00:38:14;;;;;;;;;;;23.70;40.50;;;;;;5072671;28;20334;-40
2021/03/26 00:40:41;;;;;;;;;;;23.80;40.50;;;;;;5072202;28;19924;-40
2021/03/26 00:43:08;;;;;;;;;;;23.80;40.50;;;;;;5072292;28;20449;-40
2021/03/26 00:45:36;;;;;;;;;;;23.70;40.50;;;;;;5071286;28;19971;-41
2021/03/26 00:48:03;;;;;;;;;;;23.70;40.50;;;;;;5071914;28;20046;-41
2021/03/26 00:50:33;;;;;;;;;;;23.70;40.50;;;;;;5071305;28;19966;-42
2021/03/26 00:53:01;;;;;;;;;;;23.80;40.50;;;;;;5071120;28;19965;-41
2021/03/26 00:55:27;;;;;;;;;;;23.70;40.50;;;;;;5071470;28;19921;-40
2021/03/26 00:57:54;;;;;;;;;;;23.70;40.50;;;;;;5072356;28;20007;-41
2021/03/26 01:00:23;;;;;;;;;;;23.70;40.50;;;;;;5071922;28;19924;-40
2021/03/26 01:02:49;;;;;;;;;;;23.70;40.50;;;;;;5087326;28;19921;-41
2021/03/26 01:05:19;;;;;;;;;;;23.70;40.50;;;;;;5071702;28;19920;-40
2021/03/26 01:07:46;;;;;;;;;;;23.70;40.50;;;;;;5072210;28;19920;-40
2021/03/26 01:10:13;;;;;;;;;;;23.70;40.50;;;;;;5071244;28;19921;-40
2021/03/26 01:12:40;;;;;;;;;;;23.70;40.50;;;;;;5070763;28;19928;-40
2021/03/26 01:15:08;;;;;;;;;;;23.70;40.50;;;;;;5070804;28;19928;-40
2021/03/26 01:17:34;;;;;;;;;;;23.70;40.50;;;;;;5071841;28;19928;-40
2021/03/26 01:20:04;;;;;;;;;;;23.70;40.50;;;;;;5070850;28;19931;-41
2021/03/26 01:22:31;;;;;;;;;;;23.70;40.50;;;;;;5072063;28;19924;-40
2021/03/26 01:24:57;;;;;;;;;;;23.70;40.50;;;;;;5070696;28;19930;-40
2021/03/26 01:27:24;;;;;;;;;;;23.70;40.50;;;;;;5104124;28;19920;-40
2021/03/26 01:30:00;;;;;;;;;;;23.70;40.50;;;;;;5070440;28;19927;-40
2021/03/26 01:32:27;;;;;;;;;;;23.70;40.50;;;;;;5069549;28;19920;-42
2021/03/26 01:34:53;;;;;;;;;;;23.70;40.50;;;;;;5072319;28;19939;-41
2021/03/26 01:37:20;;;;;;;;;;;23.70;40.50;;;;;;5071247;28;19921;-40
2021/03/26 01:39:46;;;;;;;;;;;23.70;40.50;;;;;;5070432;28;19927;-41
2021/03/26 01:42:39;;;;;;;;;;;23.70;40.50;;;;;;5070785;28;19920;-40
2021/03/26 01:45:15;;;;;;;;;;;23.70;40.50;;;;;;5070813;28;19921;-40
2021/03/26 01:47:41;;;;;;;;;;;23.70;40.50;;;;;;5070447;28;19966;-41
2021/03/26 01:50:10;;;;;;;;;;;23.70;40.50;;;;;;5070425;28;19927;-40
2021/03/26 01:52:37;;;;;;;;;;;23.70;40.50;;;;;;5070857;28;19921;-40
2021/03/26 01:55:05;;;;;;;;;;;23.70;40.50;;;;;;5071919;28;20284;-40
2021/03/26 01:57:32;;;;;;;;;;;23.60;40.50;;;;;;5071576;28;19921;-40
2021/03/26 01:59:58;;;;;;;;;;;23.70;40.50;;;;;;5074684;28;19932;-40
2021/03/26 02:02:25;;;;;;;;;;;23.70;40.50;;;;;;5076212;28;19928;-40
2021/03/26 02:04:52;;;;;;;;;;;23.60;40.50;;;;;;5074391;28;20367;-40
2021/03/26 02:07:19;;;;;;;;;;;23.70;40.50;;;;;;5090329;28;19920;-40
2021/03/26 02:09:45;;;;;;;;;;;23.60;40.50;;;;;;5074752;28;19924;-40
2021/03/26 02:12:12;;;;;;;;;;;23.60;40.50;;;;;;5074581;28;20274;-40
2021/03/26 02:14:40;;;;;;;;;;;23.70;40.50;;;;;;5074397;28;19920;-40
2021/03/26 02:17:07;;;;;;;;;;;23.60;40.50;;;;;;5076501;28;19927;-40
2021/03/26 02:19:42;;;;;;;;;;;23.70;40.60;;;;;;5107988;27;19928;-41
2021/03/26 02:22:10;;;;;;;;;;;23.60;40.50;;;;;;5107614;28;19920;-41
2021/03/26 02:24:37;;;;;;;;;;;23.60;40.50;;;;;;5073787;28;19924;-40
2021/03/26 02:27:09;;;;;;;;;;;23.60;40.50;;;;;;5074728;28;19926;-40
2021/03/26 02:29:36;;;;;;;;;;;23.60;40.50;;;;;;5074934;28;19921;-40
2021/03/26 02:32:22;;;;;;;;;;;23.60;41.10;;;;;;5072301;28;19927;-42
2021/03/26 02:35:22;;;;;;;;;;;23.60;40.50;;;;;;5074811;28;20284;-42
2021/03/26 02:37:58;;;;;;;;;;;23.60;40.50;;;;;;5073368;28;19920;-43
2021/03/26 02:40:27;;;;;;;;;;;23.60;40.50;;;;;;5074029;28;19970;-42
2021/03/26 02:42:59;;;;;;;;;;;23.60;40.50;;;;;;5076429;28;19928;-43
2021/03/26 02:45:31;;;;;;;;;;;23.60;40.50;;;;;;5076570;28;19927;-43
2021/03/26 02:47:59;;;;;;;;;;;23.60;40.50;;;;;;5056781;28;19931;-43
2021/03/26 02:50:45;;;;;;;;;;;23.60;40.50;;;;;;5074885;28;19925;-44
2021/03/26 02:53:35;;;;;;;;;;;23.60;40.50;;;;;;5076390;28;19920;-40
2021/03/26 02:56:05;;;;;;;;;;;23.60;40.50;;;;;;5057962;28;19995;-41
2021/03/26 02:58:34;;;;;;;;;;;23.60;40.50;;;;;;5074484;28;19920;-43
2021/03/26 03:01:32;;;;;;;;;;;23.60;40.50;;;;;;5074076;28;19928;-41
2021/03/26 03:04:02;;;;;;;;;;;23.60;40.50;;;;;;5074731;28;20014;-43
2021/03/26 03:06:42;;;;;;;;;;;23.50;40.40;;;;;;5084427;28;20018;-40
2021/03/26 03:09:10;;;;;;;;;;;23.60;40.50;;;;;;5073538;28;19920;-41
2021/03/26 03:11:41;;;;;;;;;;;23.60;40.50;;;;;;5074339;28;19921;-42
2021/03/26 03:14:11;;;;;;;;;;;23.60;40.50;;;;;;5074212;28;19920;-41
2021/03/26 03:16:46;;;;;;;;;;;23.50;40.40;;;;;;5073028;28;19928;-40
2021/03/26 03:19:38;;;;;;;;;;;23.50;40.40;;;;;;5073252;28;19942;-40
2021/03/26 03:22:08;;;;;;;;;;;23.50;40.40;;;;;;5074011;28;19920;-41
2021/03/26 03:24:36;;;;;;;;;;;23.50;40.40;;;;;;5072970;28;19920;-42
2021/03/26 03:27:03;;;;;;;;;;;23.50;40.40;;;;;;5072748;28;19921;-41
2021/03/26 03:29:36;;;;;;;;;;;23.50;40.40;;;;;;5072924;28;19920;-40
2021/03/26 03:32:02;;;;;;;;;;;23.50;40.40;;;;;;5070873;28;19920;-44
2021/03/26 03:34:31;;;;;;;;;;;23.50;40.40;;;;;;5072960;28;19960;-40
2021/03/26 03:36:58;;;;;;;;;;;23.50;40.50;;;;;;5072385;28;19924;-40
2021/03/26 03:39:28;;;;;;;;;;;23.50;40.40;;;;;;5072730;28;19928;-43
2021/03/26 03:41:55;;;;;;;;;;;23.50;40.40;;;;;;5073456;28;19927;-43
2021/03/26 03:44:23;;;;;;;;;;;23.50;40.40;;;;;;5073519;28;19950;-40
2021/03/26 03:47:09;;;;;;;;;;;23.50;40.50;;;;;;5072672;28;19975;-41
2021/03/26 03:49:52;;;;;;;;;;;23.50;40.40;;;;;;5073699;28;19932;-40
2021/03/26 03:52:33;;;;;;;;;;;23.50;40.40;;;;;;5072354;28;19920;-45
2021/03/26 03:55:17;;;;;;;;;;;23.50;40.40;;;;;;5072541;28;19920;-40
2021/03/26 03:57:47;;;;;;;;;;;23.50;40.50;;;;;;5072640;28;19927;-40
2021/03/26 04:00:20;;;;;;;;;;;23.50;40.50;;;;;;5073446;28;19924;-40
2021/03/26 04:02:56;;;;;;;;;;;23.50;40.50;;;;;;5072192;28;19921;-40
2021/03/26 04:05:32;;;;;;;;;;;23.50;40.50;;;;;;5072589;28;19921;-41
2021/03/26 04:08:10;;;;;;;;;;;23.50;40.40;;;;;;5075061;28;20398;-40
2021/03/26 04:10:38;;;;;;;;;;;23.50;40.50;;;;;;5071753;28;19920;-40
2021/03/26 04:13:12;;;;;;;;;;;23.50;40.40;;;;;;5105256;28;19978;-40
2021/03/26 04:15:45;;;;;;;;;;;23.50;40.50;;;;;;5073092;28;20019;-40
2021/03/26 04:18:14;;;;;;;;;;;23.50;40.50;;;;;;5071822;28;19960;-42
2021/03/26 04:20:51;;;;;;;;;;;23.50;40.50;;;;;;5071644;28;19974;-40
2021/03/26 04:23:26;;;;;;;;;;;23.50;40.50;;;;;;5071250;28;20343;-40
2021/03/26 04:26:02;;;;;;;;;;;23.50;41.00;;;;;;5071790;28;19920;-42
2021/03/26 04:28:32;;;;;;;;;;;23.50;40.50;;;;;;5072230;28;19956;-40
2021/03/26 04:31:02;;;;;;;;;;;23.50;40.50;;;;;;5070694;28;19924;-40
2021/03/26 04:33:28;;;;;;;;;;;23.50;40.50;;;;;;5071687;28;19920;-40
2021/03/26 04:35:56;;;;;;;;;;;23.50;40.50;;;;;;5071961;28;19951;-40
2021/03/26 04:38:22;;;;;;;;;;;23.50;40.50;;;;;;5071695;28;19920;-40
2021/03/26 04:40:55;;;;;;;;;;;23.50;40.50;;;;;;5071893;28;19920;-40
2021/03/26 04:43:24;;;;;;;;;;;23.40;40.30;;;;;;5071572;28;19920;-41
2021/03/26 04:45:53;;;;;;;;;;;23.40;40.40;;;;;;5071371;28;20010;-41
2021/03/26 04:48:20;;;;;;;;;;;23.40;40.40;;;;;;5071394;28;20345;-40
2021/03/26 04:51:07;;;;;;;;;;;23.50;40.40;;;;;;5071287;28;19920;-41
2021/03/26 04:53:39;;;;;;;;;;;23.40;40.30;;;;;;5057967;28;19936;-41
2021/03/26 04:56:08;;;;;;;;;;;23.40;40.30;;;;;;5071509;28;19974;-41
2021/03/26 04:58:37;;;;;;;;;;;23.40;40.30;;;;;;5071398;28;19943;-40
2021/03/26 05:01:05;;;;;;;;;;;23.50;40.40;;;;;;5070930;28;20391;-40
2021/03/26 05:03:33;;;;;;;;;;;23.40;40.30;;;;;;5072198;28;19920;-40
2021/03/26 05:06:11;;;;;;;;;;;23.40;40.30;;;;;;5072664;28;19924;-40
2021/03/26 05:08:43;;;;;;;;;;;23.40;40.30;;;;;;5071171;28;19978;-40
2021/03/26 05:11:11;;;;;;;;;;;23.40;40.40;;;;;;5070299;28;19921;-40
2021/03/26 05:13:58;;;;;;;;;;;23.40;40.30;;;;;;5071382;28;19928;-40
2021/03/26 05:16:43;;;;;;;;;;;23.50;40.40;;;;;;5070316;28;19943;-40
2021/03/26 05:19:12;;;;;;;;;;;23.40;40.40;;;;;;5054883;28;19921;-41
2021/03/26 05:21:47;;;;;;;;;;;23.40;40.40;;;;;;5072540;28;19970;-41
2021/03/26 05:24:20;;;;;;;;;;;23.40;40.40;;;;;;5071751;28;19965;-40
2021/03/26 05:26:46;;;;;;;;;;;23.40;40.30;;;;;;5070654;28;19920;-41
2021/03/26 05:29:13;;;;;;;;;;;23.40;40.30;;;;;;5070556;28;19920;-41
2021/03/26 05:32:00;;;;;;;;;;;23.40;40.40;;;;;;5069363;28;19920;-42
2021/03/26 05:34:30;;;;;;;;;;;23.40;40.30;;;;;;5064615;28;19924;-43
2021/03/26 05:37:12;;;;;;;;;;;23.40;40.30;;;;;;5070625;28;19920;-40
2021/03/26 05:39:39;;;;;;;;;;;23.40;40.40;;;;;;5071951;28;20300;-41
2021/03/26 05:42:23;;;;;;;;;;;23.40;40.30;;;;;;5070478;28;19928;-42
2021/03/26 05:44:56;;;;;;;;;;;23.40;40.40;;;;;;5070572;28;20291;-41
2021/03/26 05:47:41;;;;;;;;;;;23.40;40.30;;;;;;5071760;28;20273;-42
2021/03/26 05:50:08;;;;;;;;;;;23.40;40.30;;;;;;5070492;28;20368;-44
2021/03/26 05:52:40;;;;;;;;;;;23.40;40.30;;;;;;5071403;28;19920;-40
2021/03/26 05:55:18;;;;;;;;;;;23.40;40.30;;;;;;5071728;28;20007;-40
2021/03/26 05:58:03;;;;;;;;;;;23.40;40.30;;;;;;5071561;28;19920;-40
2021/03/26 06:00:39;;;;;;;;;;;23.40;40.30;;;;;;5071843;28;19920;-42
2021/03/26 06:03:24;;;;;;;;;;;23.40;40.30;;;;;;5071777;28;19920;-40
2021/03/26 06:06:00;;;;;;;;;;;23.40;40.30;;;;;;5070550;28;19924;-41
2021/03/26 06:08:44;;;;;;;;;;;23.40;40.30;;;;;;5070455;28;19924;-40
2021/03/26 06:11:19;;;;;;;;;;;23.40;40.30;;;;;;5071726;28;19924;-40
2021/03/26 06:13:48;;;;;;;;;;;23.40;40.30;;;;;;5070473;28;19936;-40
2021/03/26 06:16:21;;;;;;;;;;;23.40;40.30;;;;;;5105626;28;20320;-40
2021/03/26 06:18:49;;;;;;;;;;;23.40;40.30;;;;;;5103626;28;20288;-41
2021/03/26 06:21:24;;;;;;;;;;;23.40;40.30;;;;;;5053945;28;20011;-43
2021/03/26 06:23:54;;;;;;;;;;;23.40;40.30;;;;;;5103633;28;20261;-40
2021/03/26 06:26:32;;;;;;;;;;;23.40;40.30;;;;;;5071953;28;19938;-41
2021/03/26 06:29:02;;;;;;;;;;;23.40;40.30;;;;;;5070725;28;20010;-39
2021/03/26 06:31:34;;;;;;;;;;;23.50;40.40;;;;;;5069052;28;19920;-40
2021/03/26 06:34:10;;;;;;;;;;;23.40;40.30;;;;;;5071251;28;19920;-40
2021/03/26 06:36:40;;;;;;;;;;;23.40;40.30;;;;;;5070251;28;19920;-41
2021/03/26 06:39:15;;;;;;;;;;;23.50;40.30;;;;;;5071029;28;19920;-43
2021/03/26 06:41:42;;;;;;;;;;;23.50;40.30;;;;;;5070156;28;19967;-42
2021/03/26 06:44:14;;;;;;;;;;;23.50;40.30;;;;;;5069842;28;20394;-40
2021/03/26 06:46:53;;;;;;;;;;;23.50;40.30;;;;;;5074863;28;19928;-40
2021/03/26 06:49:28;;;;;;;;;;;23.50;40.30;;;;;;5107128;28;20390;-39
2021/03/26 06:52:07;;;;;;;;;;;23.50;40.30;;;;;;5075061;28;19947;-40
2021/03/26 06:54:40;;;;;;;;;;;23.50;40.30;;;;;;5073863;28;19977;-41
2021/03/26 06:57:06;;;;;;;;;;;23.50;40.30;;;;;;5074711;28;19927;-40
2021/03/26 06:59:39;;;;;;;;;;;23.50;40.30;;;;;;5072985;28;19928;-41
2021/03/26 07:02:11;;;;;;;;;;;23.50;40.30;;;;;;5073149;28;20410;-41
2021/03/26 07:04:53;;;;;;;;;;;23.50;40.80;;;;;;5074450;28;19927;-40
2021/03/26 07:07:29;;;;;;;;;;;23.50;40.20;;;;;;5083369;28;19920;-40
2021/03/26 07:10:01;;;;;;;;;;;23.50;40.20;;;;;;5072565;28;19920;-40
2021/03/26 07:12:54;;;;;;;;;;;23.50;40.30;;;;;;5073381;28;19920;-40
2021/03/26 07:15:26;;;;;;;;;;;23.50;40.20;;;;;;5056306;28;19921;-40
2021/03/26 07:17:58;;;;;;;;;;;23.50;40.20;;;;;;5072988;28;19920;-40
2021/03/26 07:20:25;;;;;;;;;;;23.50;40.20;;;;;;5074095;28;19928;-40
2021/03/26 07:23:00;;;;;;;;;;;23.50;40.20;;;;;;5073104;28;19921;-40
2021/03/26 07:25:39;;;;;;;;;;;23.50;40.20;;;;;;5072797;28;19920;-42
2021/03/26 07:28:30;;;;;;;;;;;23.50;40.20;;;;;;5072580;28;19974;-40
2021/03/26 07:31:15;;;;;;;;;;;23.50;40.20;;;;;;5054928;28;20364;-40
2021/03/26 07:33:46;;;;;;;;;;;23.50;40.10;;;;;;5072680;28;19927;-40
2021/03/26 07:36:23;;;;;;;;;;;23.50;40.10;;;;;;5073089;28;19921;-40
2021/03/26 07:39:08;;;;;;;;;;;23.50;40.10;;;;;;5072517;28;19920;-40
2021/03/26 07:41:35;;;;;;;;;;;23.50;40.10;;;;;;5072661;28;19920;-40
2021/03/26 07:44:05;;;;;;;;;;;23.50;40.10;;;;;;5072355;28;19927;-40
2021/03/26 07:46:35;;;;;;;;;;;23.50;40.10;;;;;;5072321;28;20360;-39
2021/03/26 07:49:04;;;;;;;;;;;23.50;40.10;;;;;;5107154;27;19920;-39
2021/03/26 07:51:34;;;;;;;;;;;23.50;40.10;;;;;;5072307;28;20383;-40
2021/03/26 07:54:04;;;;;;;;;;;23.60;40.20;;;;;;5072229;28;19924;-40
2021/03/26 07:56:49;;;;;;;;;;;23.60;40.10;;;;;;5071724;28;19978;-40
2021/03/26 07:59:34;;;;;;;;;;;23.50;40.10;;;;;;5104298;28;19966;-40
2021/03/26 08:02:19;;;;;;;;;;;23.50;40.00;;;;;;5073303;28;19924;-41
2021/03/26 08:05:14;;;;;;;;;;;23.50;40.10;;;;;;5073701;28;20379;-40
2021/03/26 08:07:59;;;;;;;;;;;23.60;40.10;;;;;;5080989;28;19928;-39
2021/03/26 08:10:26;;;;;;;;;;;23.60;40.10;;;;;;5073098;28;20283;-40
2021/03/26 08:13:02;;;;;;;;;;;23.50;40.00;;;;;;5073108;28;19920;-41
2021/03/26 08:15:51;;;;;;;;;;;23.60;40.10;;;;;;5071304;28;19929;-40
2021/03/26 08:18:27;;;;;;;;;;;23.60;40.00;;;;;;5069902;28;19982;-41
2021/03/26 08:21:12;;;;;;;;;;;23.60;40.00;;;;;;5072211;28;19932;-41
2021/03/26 08:23:57;;;;;;;;;;;23.60;40.00;;;;;;5103965;28;19977;-42
2021/03/26 08:26:24;;;;;;;;;;;23.60;40.00;;;;;;5071871;28;20003;-40
2021/03/26 08:28:55;;;;;;;;;;;23.60;40.00;;;;;;5071486;28;20338;-40
2021/03/26 08:31:40;;;;;;;;;;;23.60;40.00;;;;;;5070203;28;19970;-40
2021/03/26 08:34:26;;;;;;;;;;;23.60;39.90;;;;;;5071605;28;19920;-40
2021/03/26 08:37:05;;;;;;;;;;;23.60;39.90;;;;;;5072380;28;19921;-42
2021/03/26 08:39:38;;;;;;;;;;;23.60;40.50;;;;;;5072251;28;19924;-43
2021/03/26 08:42:19;;;;;;;;;;;23.60;39.90;;;;;;5071306;28;19927;-40
2021/03/26 08:44:57;;;;;;;;;;;23.60;39.90;;;;;;5070954;28;19920;-40
2021/03/26 08:47:43;;;;;;;;;;;23.70;39.90;;;;;;5071366;28;19920;-40
2021/03/26 08:50:29;;;;;;;;;;;23.60;39.90;;;;;;5071375;28;20336;-42
2021/03/26 08:53:31;;;;;;;;;;;23.60;39.80;;;;;;5071269;28;19996;-40
2021/03/26 08:56:03;;;;;;;;;;;23.60;39.80;;;;;;5031604;28;19921;-39
2021/03/26 08:58:48;;;;;;;;;;;23.60;39.80;;;;;;5030852;28;20394;-40
2021/03/26 09:01:24;;;;;;;;;;;23.70;40.40;;;;;;5029351;28;20404;-41
2021/03/26 09:04:09;;;;;;;;;;;23.70;40.40;;;;;;5028926;28;20539;-41
2021/03/26 09:06:42;;;;;;;;;;;23.70;40.20;;;;;;5031762;28;20055;-40
2021/03/26 09:09:15;;;;;;;;;;;23.70;40.10;;;;;;5028182;28;19921;-42
2021/03/26 09:11:57;;;;;;;;;;;23.70;40.10;;;;;;5027010;28;19929;-40
2021/03/26 09:14:52;;;;;;;;;;;23.70;40.10;;;;;;5028681;28;19929;-41
2021/03/26 09:17:19;;;;;;;;;;;23.70;40.00;;;;;;4969912;28;20009;-41
2021/03/26 09:19:48;;;;;;;;;;;23.70;40.00;;;;;;4969975;28;19985;-40
2021/03/26 09:22:17;;;;;;;;;;;23.70;40.00;;;;;;4971109;28;19949;-40
2021/03/26 09:24:53;;;;;;;;;;;23.70;40.00;;;;;;4970931;28;19922;-40
2021/03/26 09:27:24;;;;;;;;;;;23.70;40.00;;;;;;4970649;28;20413;-41
2021/03/26 09:29:51;;;;;;;;;;;23.70;40.00;;;;;;4997092;28;19954;-41
2021/03/26 09:32:23;;;;;;;;;;;23.70;39.90;;;;;;5028274;28;19921;-40
2021/03/26 09:35:02;;;;;;;;;;;23.70;40.00;;;;;;5029328;28;20316;-40
2021/03/26 09:37:35;;;;;;;;;;;23.70;39.90;;;;;;5029411;28;20033;-41
2021/03/26 09:40:08;;;;;;;;;;;23.70;39.90;;;;;;5018107;28;19929;-40
2021/03/26 09:42:38;;;;;;;;;;;23.70;39.90;;;;;;5024878;28;19972;-40
2021/03/26 09:45:31;;;;;;;;;;;23.70;39.90;;;;;;5029704;28;19932;-40
2021/03/26 09:48:16;;;;;;;;;;;23.70;39.90;;;;;;5021896;28;20314;-41
2021/03/26 09:51:02;;;;;;;;;;;23.70;39.90;;;;;;5028346;28;19921;-40
2021/03/26 09:53:33;;;;;;;;;;;23.70;39.90;;;;;;5037046;28;19921;-40
2021/03/26 09:56:18;;;;;;;;;;;23.70;39.90;;;;;;5065270;28;19927;-40
2021/03/26 09:58:53;;;;;;;;;;;23.70;39.90;;;;;;5072050;28;20284;-41
2021/03/26 10:01:25;;;;;;;;;;;23.70;39.80;;;;;;5070708;28;19920;-41
2021/03/26 10:04:06;;;;;;;;;;;23.70;39.90;;;;;;5071482;28;19921;-40
2021/03/26 10:07:32;;;;;;;;;;;23.70;39.80;;;;;;5071027;28;19922;-44
2021/03/26 10:10:43;;;;;;;;;;;23.70;39.80;;;;;;5046383;28;19932;-41
2021/03/26 10:13:07;;;;;;;;;;;23.70;39.90;;;;;;5047228;28;19972;-41
2021/03/26 10:15:39;;;;;;;;;;;23.80;39.90;;;;;;5046312;28;19967;-41
2021/03/26 10:18:11;;;;;;;;;;;23.80;39.90;;;;;;5048090;28;20368;-40
2021/03/26 10:20:54;;;;;;;;;;;23.80;39.90;;;;;;5049998;28;20359;-41
2021/03/26 10:23:39;;;;;;;;;;;23.70;39.80;;;;;;5035123;28;19924;-41
2021/03/26 10:26:18;;;;;;;;;;;23.80;39.90;;;;;;5051443;28;19921;-42
2021/03/26 10:28:44;;;;;;;;;;;23.80;39.90;;;;;;5051544;28;19924;-41
2021/03/26 10:31:11;;;;;;;;;;;23.70;39.80;;;;;;5049781;28;19924;-41
2021/03/26 10:34:04;;;;;;;;;;;23.70;39.80;;;;;;5051493;28;19966;-41
2021/03/26 10:36:41;;;;;;;;;;;23.80;39.90;;;;;;5047967;28;19925;-40
2021/03/26 10:39:14;;;;;;;;;;;23.80;39.90;;;;;;5051412;28;19921;-42
2021/03/26 10:42:00;;;;;;;;;;;23.80;39.90;;;;;;5072686;28;19979;-41
2021/03/26 10:44:32;;;;;;;;;;;23.80;39.90;;;;;;5074970;28;19982;-40
2021/03/26 10:47:14;;;;;;;;;;;23.80;39.90;;;;;;5073645;28;19924;-41
2021/03/26 10:49:46;;;;;;;;;;;23.80;39.90;;;;;;5073285;28;19925;-43
2021/03/26 10:52:33;;;;;;;;;;;23.80;39.90;;;;;;5074658;28;19920;-40
2021/03/26 10:55:08;;;;;;;;;;;23.80;39.90;;;;;;5074804;28;19999;-41
2021/03/26 10:57:38;;;;;;;;;;;23.80;39.90;;;;;;5074308;28;20372;-42
2021/03/26 11:00:23;;;;;;;;;;;23.80;39.90;;;;;;5073106;28;20035;-40
2021/03/26 11:03:05;;;;;;;;;;;23.80;39.90;;;;;;5072995;28;19927;-41
2021/03/26 11:05:37;;;;;;;;;;;23.80;39.90;;;;;;5075000;28;19927;-42
2021/03/26 11:08:04;;;;;;;;;;;23.80;39.90;;;;;;5085435;28;19924;-41
2021/03/26 11:10:34;;;;;;;;;;;23.80;39.90;;;;;;5073479;28;19966;-40
2021/03/26 11:13:04;;;;;;;;;;;23.80;39.90;;;;;;5073106;28;19942;-43
2021/03/26 11:15:34;;;;;;;;;;;23.80;39.90;;;;;;5074273;28;19924;-41
2021/03/26 11:18:09;;;;;;;;;;;23.80;39.90;;;;;;5074210;28;19924;-40
2021/03/26 11:20:42;;;;;;;;;;;23.80;39.90;;;;;;5074219;28;19920;-43
2021/03/26 11:23:28;;;;;;;;;;;23.80;39.90;;;;;;5073807;28;19920;-41
2021/03/26 11:26:03;;;;;;;;;;;23.90;40.00;;;;;;5073386;28;19931;-41
2021/03/26 11:28:33;;;;;;;;;;;23.80;39.90;;;;;;5074124;28;19920;-40
2021/03/26 11:31:17;;;;;;;;;;;23.80;39.90;;;;;;5073273;28;19921;-41
2021/03/26 11:33:49;;;;;;;;;;;23.80;39.90;;;;;;5075416;28;19920;-41
2021/03/26 11:36:28;;;;;;;;;;;23.90;40.10;;;;;;5072897;28;19921;-40
2021/03/26 11:39:00;;;;;;;;;;;23.90;40.10;;;;;;5073748;28;19924;-40
2021/03/26 11:41:31;;;;;;;;;;;23.90;40.10;;;;;;5072472;28;19964;-41
2021/03/26 11:44:01;;;;;;;;;;;23.90;40.10;;;;;;5072639;28;19999;-40
2021/03/26 11:46:35;;;;;;;;;;;23.80;39.90;;;;;;5072341;28;20372;-40
2021/03/26 11:49:04;;;;;;;;;;;23.80;39.90;;;;;;5106130;27;19921;-42
2021/03/26 11:51:31;;;;;;;;;;;23.90;40.00;;;;;;5072662;28;20293;-41
2021/03/26 11:53:59;;;;;;;;;;;23.90;40.00;;;;;;5072546;28;19974;-40
2021/03/26 11:56:37;;;;;;;;;;;23.90;40.00;;;;;;5073707;28;19920;-41
2021/03/26 11:59:04;;;;;;;;;;;23.90;40.00;;;;;;5072159;28;19920;-41
2021/03/26 12:01:34;;;;;;;;;;;23.90;40.00;;;;;;5071992;28;19922;-40
2021/03/26 12:04:05;;;;;;;;;;;23.90;40.10;;;;;;5072851;28;19959;-41
2021/03/26 12:06:37;;;;;;;;;;;23.90;40.10;;;;;;5083751;28;19926;-41
2021/03/26 12:09:31;;;;;;;;;;;23.90;40.10;;;;;;5071578;28;19955;-40
2021/03/26 12:12:17;;;;;;;;;;;23.90;40.00;;;;;;5070463;28;19920;-40
2021/03/26 12:14:52;;;;;;;;;;;23.90;40.10;;;;;;5073330;28;20430;-40
2021/03/26 12:17:21;;;;;;;;;;;23.90;40.00;;;;;;5073193;28;20262;-40
2021/03/26 12:19:57;;;;;;;;;;;23.90;40.00;;;;;;5073327;28;19970;-41
2021/03/26 12:22:30;;;;;;;;;;;23.90;40.10;;;;;;5072833;28;19921;-40
2021/03/26 12:25:01;;;;;;;;;;;23.90;40.10;;;;;;5071374;28;19925;-40
2021/03/26 12:27:48;;;;;;;;;;;23.90;40.10;;;;;;5072694;28;19927;-40
2021/03/26 12:30:19;;;;;;;;;;;23.90;40.10;;;;;;5071253;28;19927;-40
2021/03/26 12:33:04;;;;;;;;;;;23.90;40.10;;;;;;5071520;28;19927;-40
2021/03/26 12:35:34;;;;;;;;;;;23.90;40.10;;;;;;5071671;28;20347;-41
2021/03/26 12:38:19;;;;;;;;;;;23.90;40.10;;;;;;5072497;28;19931;-41
2021/03/26 12:40:56;;;;;;;;;;;23.90;40.10;;;;;;5072661;28;20392;-42
2021/03/26 12:43:23;;;;;;;;;;;23.90;40.10;;;;;;5071172;28;19921;-40
2021/03/26 12:45:55;;;;;;;;;;;23.90;40.10;;;;;;5071006;28;20390;-40
2021/03/26 12:48:23;;;;;;;;;;;23.90;40.10;;;;;;5072520;28;20395;-40
2021/03/26 12:50:57;;;;;;;;;;;23.90;40.10;;;;;;5071296;28;20288;-40
2021/03/26 12:53:23;;;;;;;;;;;23.90;40.10;;;;;;5071042;28;19920;-40
2021/03/26 12:56:02;;;;;;;;;;;23.90;40.10;;;;;;5072340;28;19920;-40
2021/03/26 12:58:43;;;;;;;;;;;23.90;40.10;;;;;;5070700;28;19921;-41
2021/03/26 13:01:10;;;;;;;;;;;23.90;40.10;;;;;;5070978;28;19920;-40
2021/03/26 13:03:37;;;;;;;;;;;23.90;40.10;;;;;;5070944;28;19927;-40
2021/03/26 13:06:08;;;;;;;;;;;23.90;40.10;;;;;;5076857;28;20027;-40
2021/03/26 13:08:36;;;;;;;;;;;23.90;40.10;;;;;;5071621;28;20399;-41
2021/03/26 13:11:08;;;;;;;;;;;23.90;40.10;;;;;;5071921;28;19920;-40
2021/03/26 13:13:35;;;;;;;;;;;23.90;40.10;;;;;;5070797;28;19920;-43
2021/03/26 13:16:08;;;;;;;;;;;23.90;40.10;;;;;;5072234;28;20319;-48
2021/03/26 13:19:05;;;;;;;;;;;24.00;40.20;;;;;;5071085;28;19920;-42
2021/03/26 13:21:38;;;;;;;;;;;24.00;40.20;;;;;;5065939;28;19920;-44
2021/03/26 13:24:04;;;;;;;;;;;24.00;40.20;;;;;;5072215;28;19926;-43
2021/03/26 13:26:32;;;;;;;;;;;24.00;40.20;;;;;;5070894;28;19992;-41
2021/03/26 13:29:05;;;;;;;;;;;24.00;40.20;;;;;;5105292;27;19924;-41
2021/03/26 13:31:33;;;;;;;;;;;23.90;40.10;;;;;;5068327;28;20291;-41
2021/03/26 13:34:03;;;;;;;;;;;24.00;40.20;;;;;;5072004;28;19990;-40
2021/03/26 13:36:35;;;;;;;;;;;23.90;40.10;;;;;;5072054;28;19986;-40
2021/03/26 13:39:24;;;;;;;;;;;24.00;40.20;;;;;;5070936;28;19995;-42
2021/03/26 13:42:09;;;;;;;;;;;23.90;40.10;;;;;;5070852;28;20264;-40
2021/03/26 13:44:43;;;;;;;;;;;24.00;40.20;;;;;;5071779;28;19920;-41
2021/03/26 13:47:22;;;;;;;;;;;24.00;40.20;;;;;;5070591;28;19928;-40
2021/03/26 13:49:51;;;;;;;;;;;24.00;40.20;;;;;;5070753;28;19927;-40
2021/03/26 13:52:23;;;;;;;;;;;24.00;40.30;;;;;;5070424;28;19935;-41
2021/03/26 13:54:58;;;;;;;;;;;24.00;40.20;;;;;;5073195;28;20368;-41
2021/03/26 13:57:27;;;;;;;;;;;24.00;40.20;;;;;;5074931;28;19931;-40
2021/03/26 14:00:03;;;;;;;;;;;24.00;40.20;;;;;;5075448;28;19928;-41
2021/03/26 14:02:32;;;;;;;;;;;24.00;40.20;;;;;;5076274;28;19921;-40
2021/03/26 14:05:16;;;;;;;;;;;24.00;40.30;;;;;;5075347;28;19986;-40
2021/03/26 14:07:45;;;;;;;;;;;24.00;40.30;;;;;;5075684;28;19920;-41
2021/03/26 14:10:32;;;;;;;;;;;24.00;40.30;;;;;;5074503;28;19921;-41
2021/03/26 14:13:00;;;;;;;;;;;24.00;40.20;;;;;;5067147;28;19924;-40
2021/03/26 14:15:28;;;;;;;;;;;24.00;40.30;;;;;;5074396;28;20321;-40
2021/03/26 14:18:13;;;;;;;;;;;24.00;40.20;;;;;;5074083;28;19924;-40
2021/03/26 14:20:46;;;;;;;;;;;24.00;40.30;;;;;;5075249;28;19946;-40
2021/03/26 14:23:30;;;;;;;;;;;24.00;40.30;;;;;;5074113;28;19920;-40
2021/03/26 14:25:58;;;;;;;;;;;24.00;40.30;;;;;;5097544;27;19932;-40
2021/03/26 14:28:40;;;;;;;;;;;24.00;40.30;;;;;;5019986;28;19967;-40
2021/03/26 14:31:17;;;;;;;;;;;24.00;40.40;;;;;;5025821;28;19921;-40
2021/03/26 14:33:45;;;;;;;;;;;24.00;40.60;;;;;;5033813;28;19969;-40
2021/03/26 14:36:17;;;;;;;;;;;24.00;40.60;;;;;;5029000;28;19921;-41
2021/03/26 14:38:44;;;;;;;;;;;24.00;40.70;;;;;;5021998;28;19921;-42
2021/03/26 14:41:13;;;;;;;;;;;24.00;40.60;;;;;;5034191;28;19991;-41
2021/03/26 14:43:41;;;;;;;;;;;24.00;40.60;;;;;;5033813;28;19929;-43
2021/03/26 14:46:08;;;;;;;;;;;24.00;40.60;;;;;;5034587;28;19921;-41
2021/03/26 14:48:49;;;;;;;;;;;24.00;40.70;;;;;;5035482;28;19932;-41
2021/03/26 14:51:25;;;;;;;;;;;24.00;40.80;;;;;;5032870;28;19927;-42
2021/03/26 14:53:57;;;;;;;;;;;24.10;41.30;;;;;;5033523;28;19925;-42
2021/03/26 14:56:29;;;;;;;;;;;24.10;41.30;;;;;;5018556;28;19944;-41